createdAt,value
2022-10-04T00:05:09.175Z,99158.11
2022-10-04T00:10:23.942Z,99154.11
2022-10-04T00:15:33.921Z,99153.05
2022-10-04T00:21:06.315Z,99159.27
2022-10-04T00:26:38.620Z,99155.05
2022-10-04T00:38:34.592Z,99149.59
2022-10-04T00:43:47.323Z,99143.07
2022-10-04T00:48:58.107Z,99138.95
2022-10-04T00:54:13.812Z,99132.48
2022-10-04T00:59:36.065Z,99137.01
2022-10-04T01:04:49.194Z,99140.25
2022-10-04T01:10:01.108Z,99141.45
2022-10-04T01:15:15.166Z,99139.04
2022-10-04T01:20:36.451Z,99133.70
2022-10-04T01:25:52.504Z,99139.95
2022-10-04T01:30:59.713Z,99130.86
2022-10-04T01:36:07.513Z,99136.98
2022-10-04T01:41:16.024Z,99135.06
2022-10-04T01:46:27.259Z,99134.39
2022-10-04T01:51:39.986Z,99132.75
2022-10-04T01:56:52.344Z,99137.84
2022-10-04T02:02:04.424Z,99132.58
2022-10-04T02:07:17.176Z,99134.77
2022-10-04T02:12:24.249Z,99134.27
2022-10-04T02:17:33.817Z,99129.34
2022-10-04T02:22:40.925Z,99126.48
2022-10-04T02:27:48.336Z,99128.98
2022-10-04T02:32:59.893Z,99125.06
2022-10-04T02:38:21.427Z,99121.31
2022-10-04T02:43:35.335Z,99127.80
2022-10-04T02:48:48.376Z,99129.41
2022-10-04T02:54:03.778Z,99129.05
2022-10-04T02:59:17.558Z,99129.09
2022-10-04T03:04:28.231Z,99122.52
2022-10-04T03:09:37.763Z,99127.83
2022-10-04T03:14:45.597Z,99127.52
2022-10-04T03:19:53.297Z,99133.21
2022-10-04T03:25:02.891Z,99127.73
2022-10-04T03:30:17.301Z,99121.86
2022-10-04T03:35:31.498Z,99120.29
2022-10-04T03:40:43.509Z,99131.44
2022-10-04T03:45:51.188Z,99142.73
2022-10-04T03:51:00.062Z,99146.43
2022-10-04T03:56:13.793Z,99142.75
2022-10-04T04:01:36.040Z,99139.39
2022-10-04T04:06:53.626Z,99138.50
2022-10-04T04:12:03.127Z,99147.77
2022-10-04T04:17:37.444Z,99153.00
2022-10-04T04:22:50.155Z,99158.23
2022-10-04T04:28:04.258Z,99162.05
2022-10-04T04:33:21.259Z,99168.11
2022-10-04T04:38:28.617Z,99171.16
2022-10-04T04:43:36.433Z,99173.02
2022-10-04T04:48:46.499Z,99173.87
2022-10-04T04:53:56.385Z,99175.20
2022-10-04T04:59:12.686Z,99178.55
2022-10-04T05:04:22.813Z,99179.05
2022-10-04T05:09:33.812Z,99184.70
2022-10-04T05:14:47.303Z,99192.09
2022-10-04T05:19:58.794Z,99198.63
2022-10-04T05:25:10.465Z,99200.98
2022-10-04T05:30:34.492Z,99208.64
2022-10-04T05:36:04.420Z,99216.15
2022-10-04T05:41:18.868Z,99220.43
2022-10-04T05:46:44.964Z,99228.80
2022-10-04T05:51:57.053Z,99232.70
2022-10-04T05:57:22.229Z,99243.95
2022-10-04T06:03:03.637Z,99259.74
2022-10-04T06:08:21.749Z,99268.11
2022-10-04T06:13:53.710Z,99275.14
2022-10-04T06:19:36.341Z,99276.92
2022-10-04T06:24:46.851Z,99284.88
2022-10-04T06:30:02.202Z,99286.72
2022-10-04T06:35:40.739Z,99291.67
2022-10-04T06:41:23.797Z,99299.85
2022-10-04T06:46:44.067Z,99300.23
2022-10-04T06:52:07.752Z,99295.45
2022-10-04T06:57:37.208Z,99308.48
2022-10-04T07:02:50.429Z,99320.38
2022-10-04T07:08:08.184Z,99329.38
2022-10-04T07:13:25.310Z,99338.88
2022-10-04T07:18:34.377Z,99345.65
2022-10-04T07:23:50.799Z,99350.77
2022-10-04T07:29:21.752Z,99359.40
2022-10-04T07:34:33.721Z,99361.27
2022-10-04T07:39:50.631Z,99367.36
2022-10-04T07:45:18.589Z,99372.15
2022-10-04T07:50:35.309Z,99376.03
2022-10-04T07:55:51.528Z,99384.84
2022-10-04T08:01:04.128Z,99396.41
2022-10-04T08:06:20.008Z,99394.48
2022-10-04T08:11:40.194Z,99401.66
2022-10-04T08:16:54.359Z,99405.38
2022-10-04T08:22:06.882Z,99416.07
2022-10-04T08:27:38.098Z,99416.59
2022-10-04T08:38:48.333Z,99428.06
2022-10-04T08:44:47.649Z,99431.14
2022-10-04T08:50:23.092Z,99432.39
2022-10-04T08:55:52.763Z,99436.35
2022-10-04T09:01:19.669Z,99441.92
2022-10-04T09:06:39.821Z,99443.94
2022-10-04T09:12:06.667Z,99451.47
2022-10-04T09:17:24.299Z,99456.28
2022-10-04T09:22:50.651Z,99460.15
2022-10-04T09:28:21.939Z,99471.32
2022-10-04T09:33:56.122Z,99475.19
2022-10-04T09:39:30.736Z,99480.95
2022-10-04T09:45:17.722Z,99482.43
2022-10-04T09:50:57.692Z,99485.46
2022-10-04T09:56:33.234Z,99496.45
2022-10-04T10:02:05.789Z,99499.92
2022-10-04T10:07:31.086Z,99502.78
2022-10-04T10:13:22.069Z,99505.66
2022-10-04T10:18:41.484Z,99506.33
2022-10-04T10:24:15.041Z,99510.28
2022-10-04T10:29:40.235Z,99513.88
2022-10-04T10:35:17.991Z,99514.67
2022-10-04T10:40:49.492Z,99516.08
2022-10-04T10:46:11.202Z,99520.82
2022-10-04T10:51:31.582Z,99524.86
2022-10-04T10:56:47.733Z,99525.41
2022-10-04T11:02:50.526Z,99527.02
2022-10-04T11:08:06.632Z,99528.17
2022-10-04T11:18:42.510Z,99527.51
2022-10-04T11:24:47.953Z,99525.52
2022-10-04T11:30:17.094Z,99535.52
2022-10-04T11:36:16.600Z,99537.23
2022-10-04T11:41:34.346Z,99546.95
2022-10-04T11:46:49.930Z,99548.85
2022-10-04T11:52:24.476Z,99541.73
2022-10-04T11:57:40.454Z,99540.96
2022-10-04T12:03:28.603Z,99548.67
2022-10-04T12:08:47.603Z,99552.88
2022-10-04T12:14:12.077Z,99551.73
2022-10-04T12:19:51.381Z,99560.91
2022-10-04T12:25:17.618Z,99558.65
2022-10-04T12:30:34.033Z,99563.14
2022-10-04T12:45:56.492Z,99570.21
2022-10-04T12:51:15.039Z,99568.77
2022-10-04T12:56:37.366Z,99570.27
2022-10-04T13:01:50.846Z,99578.30
2022-10-04T13:07:14.807Z,99588.23
2022-10-04T13:12:38.493Z,99591.39
2022-10-04T13:17:51.236Z,99589.48
2022-10-04T13:23:02.520Z,99596.73
2022-10-04T13:28:16.781Z,99599.77
2022-10-04T13:33:29.673Z,99602.47
2022-10-04T13:38:50.443Z,99603.55
2022-10-04T13:44:36.825Z,99608.98
2022-10-04T13:49:56.465Z,99604.84
2022-10-04T13:55:35.831Z,99609.65
2022-10-04T14:01:02.759Z,99609.57
2022-10-04T14:06:31.571Z,99613.69
2022-10-04T14:12:06.642Z,99619.36
2022-10-04T14:17:43.036Z,99627.25
2022-10-04T14:23:22.952Z,99619.30
2022-10-04T14:28:58.444Z,99616.79
2022-10-04T14:34:35.481Z,99621.70
2022-10-04T14:40:00.853Z,99621.95
2022-10-04T14:45:34.728Z,99620.77
2022-10-04T14:50:57.817Z,99621.13
2022-10-04T14:56:26.373Z,99617.35
2022-10-04T15:01:32.837Z,99624.43
2022-10-04T15:06:48.743Z,99627.08
2022-10-04T15:17:29.683Z,99639.44
2022-10-04T15:22:41.736Z,99645.46
2022-10-04T15:27:56.201Z,99647.19
2022-10-04T15:33:18.575Z,99650.09
2022-10-04T15:38:32.188Z,99654.20
2022-10-04T15:43:42.732Z,99656.52
2022-10-04T15:49:10.631Z,99660.64
2022-10-04T15:54:46.764Z,99662.75
2022-10-04T15:59:55.077Z,99669.24
2022-10-04T16:05:14.349Z,99671.18
2022-10-04T16:10:27.825Z,99673.39
2022-10-04T16:18:47.795Z,99675.25
2022-10-04T16:24:32.569Z,99682.27
2022-10-04T16:30:14.834Z,99680.35
2022-10-04T16:35:35.208Z,99686.17
2022-10-04T16:41:04.010Z,99694.17
2022-10-04T16:46:23.676Z,99699.73
2022-10-04T16:51:50.829Z,99699.02
2022-10-04T16:57:23.520Z,99703.52
2022-10-04T17:02:59.992Z,99716.19
2022-10-04T17:08:26.080Z,99719.32
2022-10-04T17:13:49.296Z,99725.66
2022-10-04T17:19:22.399Z,99727.41
2022-10-04T17:24:43.423Z,99732.35
2022-10-04T17:30:05.137Z,99738.94
2022-10-04T17:35:46.114Z,99743.79
2022-10-04T17:41:05.811Z,99750.24
2022-10-04T17:46:24.751Z,99751.24
2022-10-04T17:52:02.494Z,99750.99
2022-10-04T17:57:23.224Z,99757.13
2022-10-04T18:02:45.979Z,99764.11
2022-10-04T18:08:00.160Z,99768.21
2022-10-04T18:13:20.965Z,99775.11
2022-10-04T18:18:32.051Z,99785.32
2022-10-04T18:23:56.028Z,99797.75
2022-10-04T18:29:09.924Z,99804.67
2022-10-04T18:34:28.578Z,99804.04
2022-10-04T18:39:55.454Z,99804.54
2022-10-04T18:45:25.233Z,99807.25
2022-10-04T18:50:45.472Z,99805.84
2022-10-04T18:56:13.403Z,99806.63
2022-10-04T19:02:03.731Z,99810.98
2022-10-04T19:07:24.190Z,99818.77
2022-10-04T19:12:42.247Z,99823.45
2022-10-04T19:18:01.754Z,99826.80
2022-10-04T19:23:21.560Z,99829.89
2022-10-04T19:28:31.654Z,99834.39
2022-10-04T19:33:47.841Z,99841.02
2022-10-04T19:39:12.724Z,99846.73
2022-10-04T19:45:06.814Z,99848.02
2022-10-04T19:50:23.932Z,99844.71
2022-10-04T19:55:44.111Z,99853.59
2022-10-04T20:00:54.404Z,99863.94
2022-10-04T20:06:04.230Z,99871.48
2022-10-04T20:11:22.935Z,99873.06
2022-10-04T20:17:01.372Z,99879.18
2022-10-04T20:22:39.207Z,99887.66
2022-10-04T20:28:05.728Z,99890.09
2022-10-04T20:33:33.456Z,99895.54
2022-10-04T20:38:50.827Z,99898.52
2022-10-04T20:43:59.394Z,99905.04
2022-10-04T20:58:59.770Z,99905.52
2022-10-04T21:04:16.858Z,99913.84
2022-10-04T21:09:24.145Z,99919.38
2022-10-04T21:14:30.431Z,99923.30
2022-10-04T21:19:51.691Z,99927.30
2022-10-04T21:25:00.802Z,99926.47
2022-10-04T21:30:14.830Z,99930.70
2022-10-04T21:35:21.804Z,99930.45
2022-10-04T21:40:28.975Z,99935.19
2022-10-04T21:45:34.695Z,99941.64
2022-10-04T21:50:41.937Z,99944.01
2022-10-04T21:55:47.393Z,99947.17
2022-10-04T22:00:54.413Z,99953.52
2022-10-04T22:06:01.738Z,99955.08
2022-10-04T22:11:09.358Z,99954.30
2022-10-04T22:16:17.803Z,99958.70
2022-10-04T22:21:24.730Z,99956.70
2022-10-04T22:26:32.398Z,99956.76
2022-10-04T22:31:43.335Z,99952.58
2022-10-04T22:36:53.249Z,99958.86
2022-10-04T22:42:02.404Z,99956.84
2022-10-04T22:47:14.134Z,99948.39
2022-10-04T22:52:23.240Z,99943.86
2022-10-04T22:57:31.332Z,99943.48
2022-10-04T23:02:38.615Z,99933.59
2022-10-04T23:07:46.754Z,99921.00
2022-10-04T23:12:53.692Z,99916.60
2022-10-04T23:18:00.481Z,99913.55
2022-10-04T23:23:18.574Z,99920.95
2022-10-04T23:28:26.304Z,99930.36
2022-10-04T23:33:33.386Z,99938.95
2022-10-04T23:38:40.665Z,99945.93
2022-10-04T23:43:49.631Z,99943.33
2022-10-04T23:48:56.710Z,99947.46
2022-10-04T23:54:03.811Z,99950.65
2022-10-04T23:59:17.578Z,99956.13
